Time;durP1;ratioP1;P1;durP2;ratioP2;P2;SDS_P1;SDS_P2;PMS_P1;PMS_P2;Temp;Humidity;BMP_temperature;BMP_pressure;BME280_temperature;BME280_humidity;BME280_pressure;Samples;Min_cycle;Max_cycle;Signal;HPM_P1;HPM_P2
2023/05/19 00:01:27;;;;;;;4.20;1.40;;;;;;;10.15;54.93;101903.05;111017;1208;97687;-62
2023/05/19 00:03:57;;;;;;;1.80;1.30;;;;;;;10.12;55.00;101900.98;110913;1209;139155;-62
2023/05/19 00:06:25;;;;;;;5.40;1.30;;;;;;;10.08;55.07;101898.55;111169;1209;97584;-62
2023/05/19 00:09:02;;;;;;;5.80;1.40;;;;;;;10.06;55.24;101903.96;110970;1211;140636;-62
2023/05/19 00:11:28;;;;;;;4.40;1.20;;;;;;;10.02;55.21;101900.11;111065;1209;99852;-62
2023/05/19 00:13:55;;;;;;;4.90;1.20;;;;;;;9.99;55.33;101899.29;110992;1208;141870;-62
2023/05/19 00:16:21;;;;;;;2.60;1.10;;;;;;;9.97;55.35;101896.65;111057;1212;96869;-62
2023/05/19 00:18:47;;;;;;;2.30;1.20;;;;;;;9.94;55.44;101897.60;111194;1208;98326;-62
2023/05/19 00:21:13;;;;;;;4.20;1.20;;;;;;;9.93;55.55;101899.77;111083;1212;138889;-62
2023/05/19 00:23:38;;;;;;;4.50;1.20;;;;;;;9.91;55.74;101896.42;111079;1209;97584;-62
2023/05/19 00:26:03;;;;;;;10.90;1.20;;;;;;;9.89;55.81;101894.51;111038;1208;137792;-62
2023/05/19 00:28:29;;;;;;;3.10;1.40;;;;;;;9.88;55.78;101890.95;111062;1212;111917;-62
2023/05/19 00:30:55;;;;;;;7.30;1.90;;;;;;;9.86;55.73;101887.77;111077;1209;97579;-63
2023/05/19 00:33:20;;;;;;;4.40;1.20;;;;;;;9.83;55.92;101887.66;110961;1212;139318;-62
2023/05/19 00:35:45;;;;;;;3.40;1.20;;;;;;;9.80;56.01;101884.69;111100;1208;96971;-62
2023/05/19 00:38:11;;;;;;;2.80;1.30;;;;;;;9.77;56.04;101884.57;111002;1212;139877;-63
2023/05/19 00:40:36;;;;;;;7.40;1.40;;;;;;;9.75;56.12;101883.90;111131;1209;96556;-63
2023/05/19 00:43:01;;;;;;;3.10;1.30;;;;;;;9.73;56.21;101882.86;111077;1212;97800;-63
2023/05/19 00:45:27;;;;;;;6.10;1.60;;;;;;;9.72;56.25;101883.96;111059;1209;139567;-63
2023/05/19 00:47:53;;;;;;;2.10;1.30;;;;;;;9.69;56.33;101877.58;111086;1209;100154;-63
2023/05/19 00:50:19;;;;;;;5.10;1.50;;;;;;;9.67;56.35;101880.48;110987;1208;139172;-63
2023/05/19 00:52:44;;;;;;;3.50;1.40;;;;;;;9.64;56.56;101880.91;111201;1212;97616;-63
2023/05/19 00:55:10;;;;;;;5.80;1.30;;;;;;;9.63;56.56;101880.58;111089;1208;97689;-63
2023/05/19 00:57:37;;;;;;;4.30;1.40;;;;;;;9.63;56.64;101883.08;110900;1212;139704;-63
2023/05/19 01:00:04;;;;;;;2.90;1.20;;;;;;;9.61;56.71;101884.88;111148;1209;97577;-63
2023/05/19 01:02:31;;;;;;;3.80;1.00;;;;;;;9.62;56.76;101883.44;111072;1212;138879;-63
2023/05/19 01:04:56;;;;;;;3.80;1.00;;;;;;;9.62;56.83;101883.98;111159;1212;96139;-63
2023/05/19 01:07:22;;;;;;;1.30;0.80;;;;;;;9.62;56.86;101882.91;111070;1212;97644;-63
2023/05/19 01:09:48;;;;;;;1.80;1.40;;;;;;;9.60;56.89;101882.58;111045;1209;138238;-63
2023/05/19 01:12:14;;;;;;;3.30;1.20;;;;;;;9.59;56.90;101881.88;111231;1212;97998;-62
2023/05/19 01:14:41;;;;;;;2.30;1.00;;;;;;;9.58;56.95;101883.87;111090;1209;139325;-63
2023/05/19 01:17:24;;;;;;;6.00;1.10;;;;;;;9.56;56.96;101884.80;111187;1208;97660;-63
2023/05/19 01:20:07;;;;;;;6.10;1.50;;;;;;;9.53;57.06;101885.93;110868;1212;138183;-63
2023/05/19 01:22:55;;;;;;;3.10;1.00;;;;;;;9.49;57.06;101887.80;110991;1212;97703;-63
2023/05/19 01:25:36;;;;;;;3.40;1.00;;;;;;;9.43;57.11;101890.94;111078;1209;97675;-62
2023/05/19 01:28:25;;;;;;;2.40;1.00;;;;;;;9.40;57.14;101891.17;110951;1211;137416;-63
2023/05/19 01:30:55;;;;;;;3.20;1.40;;;;;;;9.37;57.22;101887.50;111042;1209;99130;-63
2023/05/19 01:33:23;;;;;;;6.70;1.00;;;;;;;9.34;57.24;101893.06;111026;1208;138176;-63
2023/05/19 01:35:49;;;;;;;5.10;1.90;;;;;;;9.33;57.45;101898.09;111043;1212;97566;-63
2023/05/19 01:38:17;;;;;;;7.50;1.60;;;;;;;9.31;57.47;101897.05;111030;1208;138990;-63
2023/05/19 01:40:43;;;;;;;5.50;1.60;;;;;;;9.29;57.42;101897.45;111034;1208;97629;-63
2023/05/19 01:43:12;;;;;;;3.10;1.10;;;;;;;9.28;57.65;101898.34;111055;1209;97686;-63
2023/05/19 01:45:39;;;;;;;7.90;1.70;;;;;;;9.27;57.68;101904.98;111018;1212;139233;-63
2023/05/19 01:48:05;;;;;;;2.80;1.50;;;;;;;9.24;57.69;101906.28;111156;1209;97657;-63
2023/05/19 01:50:31;;;;;;;6.50;1.50;;;;;;;9.21;57.77;101905.43;110926;1212;139184;-62
2023/05/19 01:52:58;;;;;;;6.10;1.70;;;;;;;9.19;57.99;101911.36;111125;1208;97677;-63
2023/05/19 01:55:24;;;;;;;4.90;1.50;;;;;;;9.18;58.00;101911.91;111179;1212;108238;-63
2023/05/19 01:58:14;;;;;;;4.10;1.60;;;;;;;9.15;58.02;101910.36;110973;1208;137869;-62
2023/05/19 02:01:01;;;;;;;7.50;1.80;;;;;;;9.13;58.19;101910.05;111157;1212;97598;-63
2023/05/19 02:03:35;;;;;;;4.30;1.60;;;;;;;9.09;58.26;101910.81;110933;1208;139565;-63
2023/05/19 02:06:17;;;;;;;2.90;1.40;;;;;;;9.08;58.33;101910.84;111156;1212;100017;-63
2023/05/19 02:08:50;;;;;;;5.50;1.90;;;;;;;9.05;58.43;101914.09;110927;1208;141194;-63
2023/05/19 02:11:30;;;;;;;3.30;1.70;;;;;;;9.05;58.71;101906.08;111036;1212;99466;-62
2023/05/19 02:14:00;;;;;;;5.80;1.40;;;;;;;9.05;58.69;101908.39;111022;1212;140123;-62
2023/05/19 02:16:27;;;;;;;3.10;1.40;;;;;;;9.05;58.69;101905.36;110996;1212;112484;-62
2023/05/19 02:18:54;;;;;;;6.70;1.90;;;;;;;9.03;58.76;101903.60;111134;1208;100519;-62
2023/05/19 02:21:19;;;;;;;8.30;1.40;;;;;;;9.03;58.88;101902.90;111101;1208;139482;-62
2023/05/19 02:23:46;;;;;;;6.20;1.90;;;;;;;9.01;58.91;101905.60;111208;1209;97603;-62
2023/05/19 02:26:12;;;;;;;5.20;1.80;;;;;;;8.98;58.92;101904.05;110987;1212;140189;-62
2023/05/19 02:28:37;;;;;;;4.50;1.50;;;;;;;8.94;58.89;101905.55;111083;1212;97626;-62
2023/05/19 02:31:04;;;;;;;4.20;1.60;;;;;;;8.89;59.04;101900.27;111104;1212;97683;-62
2023/05/19 02:33:29;;;;;;;3.40;1.50;;;;;;;8.88;59.09;101906.17;111003;1212;138902;-64
2023/05/19 02:35:55;;;;;;;5.70;1.30;;;;;;;8.85;59.21;101904.98;111070;1212;97714;-62
2023/05/19 02:38:21;;;;;;;3.80;1.60;;;;;;;8.82;59.37;101902.53;110970;1212;138614;-62
2023/05/19 02:40:46;;;;;;;5.40;1.50;;;;;;;8.80;59.50;101902.02;111000;1212;97800;-62
2023/05/19 02:43:11;;;;;;;6.80;2.00;;;;;;;8.78;59.49;101902.23;111130;1212;97609;-63
2023/05/19 02:45:37;;;;;;;3.80;1.10;;;;;;;8.76;59.62;101903.52;110924;1208;138186;-62
2023/05/19 02:48:02;;;;;;;15.60;2.10;;;;;;;8.75;59.71;101902.98;111071;1208;97691;-62
2023/05/19 02:50:27;;;;;;;8.20;1.70;;;;;;;8.74;59.79;101905.14;110989;1212;140366;-62
2023/05/19 02:52:52;;;;;;;6.80;1.80;;;;;;;8.75;59.89;101907.81;111077;1212;97689;-62
2023/05/19 02:55:18;;;;;;;2.70;1.50;;;;;;;8.74;60.01;101906.75;111108;1212;98001;-62
2023/05/19 02:57:43;;;;;;;3.60;1.40;;;;;;;8.73;60.03;101902.13;110902;1211;138964;-62
2023/05/19 03:00:09;;;;;;;7.50;1.80;;;;;;;8.73;60.04;101903.20;110968;1208;97559;-62
2023/05/19 03:02:34;;;;;;;2.50;1.60;;;;;;;8.72;60.08;101899.84;111031;1212;138297;-63
2023/05/19 03:05:02;;;;;;;4.50;1.90;;;;;;;8.69;60.24;101900.05;111170;1208;97611;-62
2023/05/19 03:07:27;;;;;;;5.50;1.90;;;;;;;8.69;60.35;101902.55;111128;1212;98275;-63
2023/05/19 03:09:52;;;;;;;4.60;2.10;;;;;;;8.69;60.34;101898.09;110943;1210;138089;-63
2023/05/19 03:12:18;;;;;;;6.80;1.70;;;;;;;8.68;60.39;101898.65;111136;1208;97743;-63
2023/05/19 03:14:43;;;;;;;4.00;1.60;;;;;;;8.67;60.43;101895.10;110960;1209;138726;-63
2023/05/19 03:17:09;;;;;;;10.80;2.60;;;;;;;8.65;60.50;101894.95;111185;1208;97581;-63
2023/05/19 03:19:35;;;;;;;5.30;1.70;;;;;;;8.63;60.68;101891.95;111085;1208;111593;-62
2023/05/19 03:22:00;;;;;;;4.50;2.10;;;;;;;8.62;60.75;101892.69;111078;1209;139825;-63
2023/05/19 03:24:26;;;;;;;5.00;2.00;;;;;;;8.61;60.75;101891.45;111223;1209;97740;-62
2023/05/19 03:26:51;;;;;;;5.30;1.70;;;;;;;8.59;60.83;101891.84;111078;1209;140435;-62
2023/05/19 03:29:16;;;;;;;2.80;1.70;;;;;;;8.58;60.94;101890.79;111243;1208;96898;-62
2023/05/19 03:31:41;;;;;;;8.00;2.30;;;;;;;8.61;61.06;101890.55;111164;1212;97674;-62
2023/05/19 03:34:07;;;;;;;15.60;2.30;;;;;;;8.63;61.12;101890.52;111059;1208;139431;-63
2023/05/19 03:36:38;;;;;;;5.70;1.90;;;;;;;8.63;61.19;101889.81;111185;1208;99159;-63
2023/05/19 03:39:06;;;;;;;5.70;2.10;;;;;;;8.61;61.37;101885.93;111008;1209;138141;-66
2023/05/19 03:41:32;;;;;;;4.60;2.20;;;;;;;8.60;61.47;101889.15;111062;1212;107852;-63
2023/05/19 03:43:57;;;;;;;4.70;1.80;;;;;;;8.62;61.53;101889.48;111033;1208;140128;-63
2023/05/19 03:46:22;;;;;;;4.80;2.10;;;;;;;8.62;61.67;101891.44;111197;1209;96509;-63
2023/05/19 03:48:47;;;;;;;3.80;2.10;;;;;;;8.64;61.75;101892.48;111078;1212;97967;-63
2023/05/19 03:51:13;;;;;;;3.60;2.20;;;;;;;8.66;61.86;101897.79;111092;1208;138845;-63
2023/05/19 03:53:38;;;;;;;6.90;2.60;;;;;;;8.68;61.91;101897.76;111022;1212;97662;-62
2023/05/19 03:56:04;;;;;;;10.30;2.20;;;;;;;8.71;62.00;101897.71;110997;1208;139208;-63
2023/05/19 03:58:30;;;;;;;8.70;2.40;;;;;;;8.74;62.09;101895.17;111137;1209;108048;-62
2023/05/19 04:00:55;;;;;;;6.90;2.20;;;;;;;8.77;62.11;101896.01;111160;1208;97635;-63
2023/05/19 04:03:20;;;;;;;5.70;2.50;;;;;;;8.79;62.21;101899.36;111129;1212;138748;-63
2023/05/19 04:05:45;;;;;;;8.40;2.10;;;;;;;8.80;62.29;101897.58;111152;1208;98102;-63
2023/05/19 04:08:11;;;;;;;25.70;3.30;;;;;;;8.83;62.42;101895.92;111032;1212;140564;-63
2023/05/19 04:10:36;;;;;;;6.80;2.10;;;;;;;8.89;62.53;101897.61;111134;1212;97632;-62
2023/05/19 04:13:01;;;;;;;5.20;2.60;;;;;;;8.95;62.54;101896.25;111093;1208;97609;-64
2023/05/19 04:15:27;;;;;;;8.70;2.40;;;;;;;9.01;62.63;101894.36;110996;1208;138151;-63
2023/05/19 04:17:52;;;;;;;4.80;2.10;;;;;;;9.08;62.61;101900.14;111065;1208;97757;-62
2023/05/19 04:20:17;;;;;;;7.90;2.60;;;;;;;9.14;62.68;101898.43;110988;1210;140755;-62
2023/05/19 04:22:42;;;;;;;8.80;2.50;;;;;;;9.20;62.72;101897.96;111030;1208;97732;-62
2023/05/19 04:25:08;;;;;;;5.50;2.10;;;;;;;9.26;62.74;101897.13;111127;1208;97653;-62
2023/05/19 04:27:37;;;;;;;10.40;2.40;;;;;;;9.31;62.79;101900.62;110866;1208;139106;-62
2023/05/19 04:30:06;;;;;;;7.80;3.10;;;;;;;9.35;62.81;101897.16;111024;1212;111363;-62
2023/05/19 04:32:32;;;;;;;6.90;2.50;;;;;;;9.38;62.91;101896.56;110993;1212;138459;-63
2023/05/19 04:34:58;;;;;;;8.60;2.40;;;;;;;9.44;62.98;101896.81;111022;1208;98084;-63
2023/05/19 04:37:26;;;;;;;8.80;2.60;;;;;;;9.51;63.02;101895.07;111117;1212;97671;-62
2023/05/19 04:39:51;;;;;;;9.20;2.30;;;;;;;9.57;62.95;101894.07;110962;1212;139541;-62
2023/05/19 04:42:20;;;;;;;6.50;2.00;;;;;;;9.60;62.91;101894.53;111104;1209;97717;-62
2023/05/19 04:44:48;;;;;;;5.60;2.70;;;;;;;9.63;62.98;101897.70;110892;1212;138090;-62
2023/05/19 04:47:14;;;;;;;4.40;2.30;;;;;;;9.67;63.08;101894.22;111089;1209;97678;-62
2023/05/19 04:49:39;;;;;;;7.90;2.50;;;;;;;9.73;63.10;101895.54;111169;1209;95025;-62
2023/05/19 04:52:06;;;;;;;6.40;2.50;;;;;;;9.80;63.22;101900.04;111009;1212;137973;-62
2023/05/19 04:54:35;;;;;;;10.60;2.90;;;;;;;9.91;63.26;101900.70;111122;1212;108261;-62
2023/05/19 04:57:02;;;;;;;5.60;2.30;;;;;;;10.01;63.23;101904.05;110958;1210;139251;-63
2023/05/19 04:59:27;;;;;;;6.10;2.60;;;;;;;10.11;63.16;101901.70;111257;1212;98035;-62
2023/05/19 05:01:52;;;;;;;6.30;2.10;;;;;;;10.20;63.23;101906.20;110990;1209;140025;-62
2023/05/19 05:04:18;;;;;;;4.10;2.30;;;;;;;10.26;63.18;101904.83;111074;1208;97795;-63
2023/05/19 05:10:07;;;;;;;10.60;2.90;;;;;;;10.49;63.34;101908.02;110948;1212;138247;-64
2023/05/19 05:12:33;;;;;;;12.10;2.60;;;;;;;10.64;63.24;101908.92;111146;1208;97695;-63
2023/05/19 05:14:58;;;;;;;5.50;2.10;;;;;;;10.77;63.20;101910.04;111045;1209;139242;-63
2023/05/19 05:17:25;;;;;;;7.00;3.00;;;;;;;10.88;63.14;101909.23;111202;1209;96189;-63
2023/05/19 05:19:51;;;;;;;8.30;2.50;;;;;;;10.97;63.05;101905.09;110908;1208;139371;-62
2023/05/19 05:22:17;;;;;;;10.60;3.20;;;;;;;11.06;63.13;101898.58;111275;1210;97661;-63
2023/05/19 05:24:43;;;;;;;14.80;2.80;;;;;;;11.19;63.15;101902.36;111126;1208;96984;-63
2023/05/19 05:27:08;;;;;;;7.10;3.30;;;;;;;11.30;63.02;101902.61;111265;1208;138012;-64
2023/05/19 05:29:34;;;;;;;7.00;2.40;;;;;;;11.35;62.95;101899.27;111094;1208;97575;-63
2023/05/19 05:31:59;;;;;;;5.30;2.30;;;;;;;11.45;62.98;101896.67;111108;1208;138873;-63
2023/05/19 05:34:25;;;;;;;9.80;2.40;;;;;;;11.52;62.79;101894.70;110936;1212;97714;-63
2023/05/19 05:36:50;;;;;;;9.70;3.10;;;;;;;11.63;62.87;101896.71;110962;1208;97856;-64
2023/05/19 05:39:15;;;;;;;6.10;2.70;;;;;;;11.75;62.92;101894.77;111010;1210;138537;-64
2023/05/19 05:41:41;;;;;;;6.60;3.10;;;;;;;11.85;62.77;101895.92;111035;1208;98471;-63
2023/05/19 05:44:06;;;;;;;7.10;3.10;;;;;;;11.95;62.63;101895.66;110880;1213;138362;-63
2023/05/19 05:46:31;;;;;;;7.50;2.80;;;;;;;12.01;62.65;101890.63;111009;1208;98134;-63
2023/05/19 05:48:57;;;;;;;10.60;3.40;;;;;;;12.10;62.65;101895.93;111029;1212;97646;-63
2023/05/19 05:51:23;;;;;;;10.10;3.00;;;;;;;12.18;62.59;101897.13;110884;1208;139067;-63
2023/05/19 05:53:53;;;;;;;5.70;2.80;;;;;;;12.25;62.49;101895.84;111391;1208;99307;-63
2023/05/19 05:56:19;;;;;;;6.60;2.70;;;;;;;12.35;62.43;101896.07;110875;1211;139419;-63
2023/05/19 05:58:45;;;;;;;6.60;3.10;;;;;;;12.43;62.36;101897.80;111104;1209;97666;-63
2023/05/19 06:01:10;;;;;;;5.50;2.60;;;;;;;12.47;62.28;101901.61;111077;1208;97017;-64
2023/05/19 06:03:39;;;;;;;7.20;3.10;;;;;;;12.55;62.25;101900.98;110876;1212;139728;-63
2023/05/19 06:06:04;;;;;;;7.30;2.90;;;;;;;12.66;62.21;101899.21;110958;1208;96365;-63
2023/05/19 06:08:30;;;;;;;10.80;3.20;;;;;;;12.84;62.16;101900.96;110803;1208;138428;-63
2023/05/19 06:10:57;;;;;;;9.80;3.90;;;;;;;12.97;62.11;101896.77;111068;1208;98169;-63
2023/05/19 06:13:22;;;;;;;6.00;2.20;;;;;;;13.09;61.98;101904.92;111026;1212;97726;-63
2023/05/19 06:15:48;;;;;;;6.40;3.00;;;;;;;13.19;61.91;101908.92;110871;1212;139628;-63
2023/05/19 06:18:13;;;;;;;10.80;3.50;;;;;;;13.26;61.76;101904.02;113054;1208;95716;-61
2023/05/19 06:20:39;;;;;;;8.30;3.20;;;;;;;13.27;61.58;101904.15;112891;1208;138520;-61
2023/05/19 06:23:04;;;;;;;11.30;4.10;;;;;;;13.34;61.66;101905.17;112940;1208;95860;-62
2023/05/19 06:25:29;;;;;;;7.20;3.40;;;;;;;13.43;61.55;101905.06;112816;1208;95776;-62
2023/05/19 06:27:54;;;;;;;5.60;3.00;;;;;;;13.52;61.45;101901.88;110841;1209;137697;-62
2023/05/19 06:30:20;;;;;;;6.30;3.20;;;;;;;13.64;61.28;101901.77;110999;1211;97692;-63
2023/05/19 06:32:45;;;;;;;8.00;3.10;;;;;;;13.73;61.18;101899.31;110908;1209;138591;-63
2023/05/19 06:35:11;;;;;;;4.30;2.60;;;;;;;13.79;61.02;101904.27;111047;1212;97683;-63
2023/05/19 06:37:36;;;;;;;5.60;3.00;;;;;;;13.86;60.95;101908.35;111159;1208;97603;-63
2023/05/19 06:40:01;;;;;;;9.40;3.10;;;;;;;13.88;60.70;101905.56;110880;1211;139769;-63
2023/05/19 06:42:26;;;;;;;6.60;2.80;;;;;;;13.94;60.63;101903.92;111228;1208;96170;-63
2023/05/19 06:44:52;;;;;;;4.40;3.10;;;;;;;14.07;60.68;101902.16;110992;1212;139254;-63
2023/05/19 06:47:18;;;;;;;11.10;3.00;;;;;;;14.17;60.45;101905.17;111218;1212;96031;-63
2023/05/19 06:49:44;;;;;;;8.30;2.90;;;;;;;14.13;60.07;101905.35;110980;1213;97652;-63
2023/05/19 06:52:11;;;;;;;7.60;2.70;;;;;;;14.10;60.03;101904.75;111242;1209;98125;-63
2023/05/19 06:54:37;;;;;;;12.00;3.10;;;;;;;14.16;59.98;101908.86;111191;1208;97743;-63
2023/05/19 06:57:03;;;;;;;10.90;3.50;;;;;;;14.18;59.89;101908.92;110965;1208;138589;-63
2023/05/19 06:59:28;;;;;;;10.80;3.50;;;;;;;14.13;59.64;101910.39;111133;1212;97714;-62
2023/05/19 07:01:53;;;;;;;7.90;2.40;;;;;;;14.07;59.59;101913.69;110975;1210;137936;-65
2023/05/19 07:04:19;;;;;;;6.30;2.90;;;;;;;14.11;59.61;101913.14;111076;1212;97594;-62
2023/05/19 07:06:44;;;;;;;6.00;2.70;;;;;;;14.15;59.43;101913.36;110936;1208;96186;-62
2023/05/19 07:09:09;;;;;;;8.80;3.00;;;;;;;14.14;59.25;101914.14;110694;1212;138230;-63
2023/05/19 07:11:34;;;;;;;9.30;2.70;;;;;;;14.16;59.28;101914.77;110835;1212;97686;-63
2023/05/19 07:14:00;;;;;;;5.50;2.80;;;;;;;14.19;59.08;101911.77;110827;1209;139986;-63
2023/05/19 07:16:25;;;;;;;7.20;2.70;;;;;;;14.17;59.08;101915.45;111052;1208;97684;-63
2023/05/19 07:18:50;;;;;;;6.80;3.10;;;;;;;14.27;58.98;101912.20;110973;1208;97613;-63
2023/05/19 07:21:15;;;;;;;8.00;3.00;;;;;;;14.26;58.64;101914.20;110923;1220;138845;-63
2023/05/19 07:23:41;;;;;;;6.60;3.60;;;;;;;14.25;58.66;101912.96;110936;1209;97717;-62
2023/05/19 07:26:06;;;;;;;11.60;3.20;;;;;;;14.27;58.53;101910.55;110987;1208;138775;-62
2023/05/19 07:28:33;;;;;;;5.40;2.90;;;;;;;14.35;58.61;101906.83;111036;1212;97665;-63
2023/05/19 07:30:58;;;;;;;16.60;3.00;;;;;;;14.37;58.31;101905.67;111044;1210;97761;-63
2023/05/19 07:33:25;;;;;;;8.30;3.10;;;;;;;14.42;58.43;101905.48;110911;1208;139073;-63
2023/05/19 07:35:51;;;;;;;8.60;2.80;;;;;;;14.50;58.24;101906.10;111052;1212;97751;-63
2023/05/19 07:38:16;;;;;;;13.40;3.40;;;;;;;14.47;58.08;101906.75;111026;1208;139090;-63
2023/05/19 07:40:42;;;;;;;7.70;2.30;;;;;;;14.47;58.00;101908.20;110933;1208;97996;-63
2023/05/19 07:43:07;;;;;;;8.10;2.90;;;;;;;14.48;58.06;101909.98;111105;1214;97671;-63
2023/05/19 07:45:32;;;;;;;12.10;3.40;;;;;;;14.57;58.08;101910.48;110854;1208;138940;-63
2023/05/19 07:47:58;;;;;;;9.00;2.90;;;;;;;14.75;58.16;101909.07;111153;1208;97616;-62
2023/05/19 07:50:23;;;;;;;9.00;2.60;;;;;;;14.84;57.93;101903.84;110998;1208;138225;-63
2023/05/19 07:52:48;;;;;;;9.40;3.20;;;;;;;14.82;57.75;101898.52;111064;1212;97653;-63
2023/05/19 07:55:13;;;;;;;15.10;2.90;;;;;;;14.79;57.48;101897.19;111198;1208;97696;-63
2023/05/19 07:57:39;;;;;;;7.50;4.40;;;;;;;14.68;57.27;101895.15;110898;1212;137866;-63
2023/05/19 08:00:10;;;;;;;8.40;3.10;;;;;;;14.65;57.37;101898.33;111074;1208;97689;-62
2023/05/19 08:02:36;;;;;;;5.60;2.90;;;;;;;14.75;57.46;101902.41;110925;1208;138110;-63
2023/05/19 08:05:01;;;;;;;8.40;2.70;;;;;;;14.76;57.19;101902.38;110875;1209;98126;-62
2023/05/19 08:07:27;;;;;;;7.80;3.00;;;;;;;14.85;57.41;101899.66;110823;1212;97666;-64
2023/05/19 08:09:52;;;;;;;9.50;2.90;;;;;;;14.99;57.42;101895.83;110597;1212;138921;-63
2023/05/19 08:12:17;;;;;;;12.80;3.50;;;;;;;15.12;57.26;101896.16;110894;1209;97585;-63
2023/05/19 08:14:43;;;;;;;6.90;2.60;;;;;;;15.16;57.00;101895.27;110570;1208;138201;-62
2023/05/19 08:17:08;;;;;;;11.60;3.20;;;;;;;15.15;57.02;101894.80;110630;1208;98120;-62
2023/05/19 08:19:33;;;;;;;5.30;2.90;;;;;;;15.25;56.99;101893.47;110658;1208;97616;-63
2023/05/19 08:22:00;;;;;;;8.50;3.00;;;;;;;15.24;56.73;101889.52;110740;1208;138711;-64
2023/05/19 08:24:28;;;;;;;8.00;3.10;;;;;;;15.22;56.69;101893.21;110700;1209;97684;-62
2023/05/19 08:26:54;;;;;;;8.50;2.60;;;;;;;15.30;56.79;101888.94;110578;1208;138286;-62
2023/05/19 08:29:20;;;;;;;8.80;3.60;;;;;;;15.31;56.52;101893.20;110768;1208;97691;-62
2023/05/19 08:31:45;;;;;;;5.80;2.40;;;;;;;15.36;56.45;101893.50;110494;1210;138405;-63
2023/05/19 08:34:10;;;;;;;7.70;2.50;;;;;;;15.41;56.53;101893.65;110793;1209;97583;-63
2023/05/19 08:36:35;;;;;;;4.40;2.50;;;;;;;15.54;56.62;101894.36;110661;1213;99290;-62
2023/05/19 08:39:01;;;;;;;10.50;3.50;;;;;;;15.71;56.66;101892.70;110589;1208;139203;-63
2023/05/19 08:41:26;;;;;;;8.60;2.30;;;;;;;15.82;56.58;101894.73;110577;1212;97684;-63
2023/05/19 08:43:52;;;;;;;7.90;3.10;;;;;;;15.79;56.22;101889.09;110582;1212;139318;-63
2023/05/19 08:46:20;;;;;;;12.20;3.00;;;;;;;15.64;56.07;101882.02;110807;1209;97725;-62
2023/05/19 08:48:47;;;;;;;10.80;3.20;;;;;;;15.63;56.04;101886.94;110681;1212;97617;-62
2023/05/19 08:51:30;;;;;;;11.60;3.30;;;;;;;15.72;56.26;101887.21;110305;1208;138366;-63
2023/05/19 08:54:03;;;;;;;10.60;3.10;;;;;;;15.75;55.93;101886.91;111163;1212;107394;-62
2023/05/19 08:56:30;;;;;;;13.10;3.60;;;;;;;15.76;56.01;101884.36;110482;1212;138195;-63
2023/05/19 08:58:59;;;;;;;11.70;3.00;;;;;;;15.84;56.19;101884.88;111058;1209;97259;-64
2023/05/19 09:01:25;;;;;;;4.00;2.80;;;;;;;16.09;56.37;101886.62;110729;1212;113264;-63
2023/05/19 09:03:50;;;;;;;8.50;2.90;;;;;;;16.20;56.01;101889.15;110595;1224;137915;-63
2023/05/19 09:06:16;;;;;;;3.70;2.40;;;;;;;16.15;55.61;101889.20;110631;1208;97608;-63
2023/05/19 09:08:42;;;;;;;5.80;2.60;;;;;;;16.13;55.44;101887.15;110426;1208;140519;-63
2023/05/19 09:11:10;;;;;;;6.70;3.00;;;;;;;16.01;55.12;101885.38;110746;1208;97574;-63
2023/05/19 09:13:36;;;;;;;3.70;1.90;;;;;;;16.07;55.55;101889.63;110443;1212;97707;-63
2023/05/19 09:16:02;;;;;;;6.60;3.00;;;;;;;16.30;55.59;101883.64;110517;1209;139097;-63
2023/05/19 09:18:28;;;;;;;4.40;2.50;;;;;;;16.55;55.54;101881.16;110728;1212;97680;-63
2023/05/19 09:21:01;;;;;;;5.10;2.50;;;;;;;16.83;55.55;101883.23;110435;1208;137568;-63
2023/05/19 09:23:28;;;;;;;4.40;2.40;;;;;;;17.08;55.33;101881.27;110844;1208;97657;-63
2023/05/19 09:25:54;;;;;;;7.40;2.50;;;;;;;17.18;54.94;101881.82;110469;1212;139081;-64
2023/05/19 09:28:31;;;;;;;7.10;2.10;;;;;;;17.25;54.90;101880.02;110604;1208;96496;-63
2023/05/19 09:31:08;;;;;;;5.20;2.20;;;;;;;17.40;54.85;101876.73;110707;1211;97758;-63
2023/05/19 09:33:35;;;;;;;11.00;2.80;;;;;;;17.52;54.65;101875.69;110383;1212;139277;-63
2023/05/19 09:36:02;;;;;;;3.20;2.10;;;;;;;17.69;54.57;101876.30;111298;1210;97681;-63
2023/05/19 09:38:28;;;;;;;6.10;2.60;;;;;;;17.72;54.27;101873.77;110523;1212;139461;-63
2023/05/19 09:40:58;;;;;;;5.90;2.40;;;;;;;17.72;53.94;101875.77;110532;1212;97727;-63
2023/05/19 09:43:28;;;;;;;5.70;2.40;;;;;;;17.71;53.81;101875.07;110838;1214;97639;-64
2023/05/19 09:46:07;;;;;;;4.80;2.30;;;;;;;17.78;53.70;101870.93;111604;1208;139555;-63
2023/05/19 09:48:35;;;;;;;5.50;2.30;;;;;;;17.75;53.37;101872.54;110500;1209;99313;-64
2023/05/19 09:51:02;;;;;;;8.30;3.40;;;;;;;17.75;53.29;101872.16;110599;1208;140493;-63
2023/05/19 09:53:30;;;;;;;3.90;2.20;;;;;;;17.78;53.11;101874.19;110933;1208;96894;-63
2023/05/19 09:55:56;;;;;;;7.50;2.50;;;;;;;17.75;52.92;101875.99;110839;1208;138725;-63
2023/05/19 09:58:23;;;;;;;6.90;2.70;;;;;;;17.57;52.43;101875.27;111389;1208;96363;-64
2023/05/19 10:00:49;;;;;;;6.70;2.40;;;;;;;17.37;52.11;101874.17;111001;1212;97704;-63
2023/05/19 10:03:16;;;;;;;5.50;2.80;;;;;;;17.28;52.12;101881.69;110819;1208;138172;-63
2023/05/19 10:05:43;;;;;;;5.30;2.30;;;;;;;17.14;51.92;101875.88;111156;1212;97642;-63
2023/05/19 10:08:09;;;;;;;5.20;2.20;;;;;;;16.94;51.67;101875.67;111087;1208;138772;-64
2023/05/19 10:10:36;;;;;;;4.00;2.30;;;;;;;16.85;51.94;101873.95;111027;1213;97636;-63
2023/05/19 10:13:03;;;;;;;7.30;2.10;;;;;;;16.82;51.78;101874.09;110981;1209;96408;-65
2023/05/19 10:15:28;;;;;;;4.00;2.50;;;;;;;16.89;51.88;101866.73;110531;1212;138946;-64
2023/05/19 10:17:55;;;;;;;4.60;2.50;;;;;;;16.96;51.82;101864.73;110831;1208;97536;-64
2023/05/19 10:20:20;;;;;;;7.00;2.40;;;;;;;17.06;51.91;101867.66;110429;1212;137866;-64
2023/05/19 10:22:45;;;;;;;5.70;2.50;;;;;;;17.11;51.78;101864.86;110816;1211;96383;-64
2023/05/19 10:25:13;;;;;;;6.00;2.40;;;;;;;17.10;51.71;101867.05;110980;1209;98316;-65
2023/05/19 10:27:48;;;;;;;3.70;2.50;;;;;;;16.96;51.48;101869.05;110935;1208;137591;-63
2023/05/19 10:30:19;;;;;;;8.90;2.60;;;;;;;16.80;51.53;101872.02;111001;1212;99856;-65
2023/05/19 10:32:47;;;;;;;6.10;2.70;;;;;;;16.77;51.58;101868.94;110793;1208;138832;-64
2023/05/19 10:35:37;;;;;;;5.20;2.30;;;;;;;16.70;51.39;101870.34;111105;1212;97648;-64
2023/05/19 10:38:20;;;;;;;5.20;2.20;;;;;;;16.63;51.44;101870.36;110945;1212;138878;-64
2023/05/19 10:41:11;;;;;;;4.50;2.80;;;;;;;16.51;51.60;101872.16;111002;1209;113820;-64
2023/05/19 10:43:55;;;;;;;3.60;2.20;;;;;;;16.36;51.59;101872.55;110873;1208;99894;-64
2023/05/19 10:46:28;;;;;;;3.90;2.00;;;;;;;16.11;51.35;101872.47;110898;1208;108032;-64
2023/05/19 10:48:54;;;;;;;4.60;2.80;;;;;;;15.80;51.32;101876.42;110984;1212;97575;-64
2023/05/19 10:51:20;;;;;;;9.20;2.70;;;;;;;15.64;51.56;101871.23;110958;1214;138256;-64
2023/05/19 10:53:45;;;;;;;7.70;2.90;;;;;;;15.57;51.80;101873.54;111136;1212;97675;-64
2023/05/19 10:56:28;;;;;;;6.60;3.30;;;;;;;15.57;51.78;101875.33;110918;1210;140295;-64
2023/05/19 10:58:53;;;;;;;5.70;2.30;;;;;;;15.61;51.86;101876.05;110916;1208;97590;-63
2023/05/19 11:01:19;;;;;;;6.60;4.00;;;;;;;15.56;51.75;101875.71;110832;1208;97631;-63
2023/05/19 11:03:53;;;;;;;7.00;3.30;;;;;;;15.47;51.79;101874.48;110750;1208;138426;-64
2023/05/19 11:06:28;;;;;;;6.20;3.10;;;;;;;15.39;51.97;101877.20;110569;1212;108130;-61
2023/05/19 11:09:00;;;;;;;9.20;2.90;;;;;;;15.36;52.02;101875.50;110491;1212;139770;-62
2023/05/19 11:11:43;;;;;;;5.60;2.10;;;;;;;15.32;52.15;101876.58;111105;1214;97720;-63
2023/05/19 11:14:10;;;;;;;5.50;2.50;;;;;;;15.36;52.31;101870.85;110773;1212;138325;-62
2023/05/19 11:16:36;;;;;;;6.80;2.50;;;;;;;15.41;52.39;101871.34;111010;1209;99524;-62
2023/05/19 11:19:01;;;;;;;4.30;3.50;;;;;;;15.46;52.40;101869.31;111152;1208;97747;-63
2023/05/19 11:21:47;;;;;;;5.80;2.90;;;;;;;15.56;52.58;101866.34;111088;1208;140369;-62